EDT,Max TemperatureF,Mean TemperatureF,Min TemperatureF,Max Dew PointF,MeanDew PointF,Min DewpointF,Max Humidity, Mean Humidity, Min Humidity, Max Sea Level PressureIn, Mean Sea Level PressureIn, Min Sea Level PressureIn, Max VisibilityMiles, Mean VisibilityMiles, Min VisibilityMiles, Max Wind SpeedMPH, Mean Wind SpeedMPH, Max Gust SpeedMPH,PrecipitationIn, CloudCover, Events, WindDirDegrees
2011-9-1,91,78,65,73,69,64,90,71,52,30.01,29.97,29.92,10,8,3,9,2,14,0.00,0,,152
2011-9-2,92,83,74,73,70,68,89,70,45,30.01,29.94,29.88,10,7,4,20,6,28,0.02,1,Rain-Thunderstorm,201
2011-9-3,91,81,70,72,69,65,94,76,45,29.94,29.89,29.82,10,7,2,16,5,21,0.05,2,Rain-Thunderstorm,212
2011-9-4,73,66,58,67,62,51,90,79,51,29.96,29.87,29.80,10,9,5,21,9,26,0.01,5,Rain,284
2011-9-5,64,56,48,54,45,42,83,67,45,30.14,30.06,29.97,10,10,10,22,10,26,0.00,4,,4
2011-9-6,68,56,43,48,44,40,89,66,47,30.20,30.16,30.13,10,10,10,16,7,22,0.00,2,,28
2011-9-7,67,59,51,52,49,46,89,74,54,30.17,30.14,30.10,10,10,10,18,9,25,T,3,,24
2011-9-8,64,60,55,61,57,47,94,85,64,30.09,30.03,30.00,10,8,2,15,8,22,0.34,8,Rain,25
2011-9-9,70,66,61,64,60,57,100,87,73,30.00,29.97,29.95,10,8,0,8,2,13,0.02,8,Fog-Rain,43
2011-9-10,77,69,60,65,62,59,100,88,60,30.06,30.02,29.98,10,3,0,14,1,22,0.48,6,Fog-Rain,288
2011-9-11,79,70,60,63,61,58,100,86,54,30.06,30.02,29.96,10,4,0,10,3,15,0.00,3,Fog,277
2011-9-12,84,72,59,63,59,57,90,70,42,30.02,29.95,29.85,10,9,7,18,7,24,0.00,2,,215
2011-9-13,77,64,51,63,55,45,76,65,55,30.00,29.86,29.77,10,9,5,16,10,25,0.00,2,,269
2011-9-14,65,55,44,52,46,37,93,78,63,30.16,30.06,29.98,10,10,7,15,6,18,0.10,3,Rain,292
2011-9-15,60,50,40,39,36,33,87,63,39,30.37,30.29,30.16,10,10,10,17,7,22,0.00,2,,346
2011-9-16,59,49,39,43,39,37,89,69,45,30.44,30.39,30.34,10,10,10,8,2,13,0.00,1,,51
2011-9-17,69,59,49,47,44,41,80,64,42,30.38,30.34,30.28,10,10,10,12,3,18,0.00,4,,97
2011-9-18,72,58,43,57,49,41,93,75,51,30.31,30.21,30.04,10,10,2,14,4,18,0.02,3,Rain,130
2011-9-19,66,58,50,63,60,51,94,89,80,30.03,29.95,29.91,10,6,0,13,6,17,0.44,7,Fog-Rain,251
2011-9-20,73,60,47,57,50,46,100,84,41,30.12,30.07,30.01,10,4,0,9,3,13,0.00,2,Fog,176
2011-9-21,75,64,53,62,56,44,94,75,35,30.01,29.95,29.90,10,7,1,17,9,23,0.00,3,,205
2011-9-22,68,60,51,53,49,46,88,73,48,30.14,30.08,30.01,10,10,10,16,7,21,0.00,3,,236
2011-9-23,66,57,48,50,47,44,94,79,47,30.13,30.06,30.01,10,9,3,16,3,21,0.13,4,Rain-Thunderstorm,331
2011-9-24,65,55,45,52,47,44,100,87,55,30.05,30.02,30.00,10,5,0,17,3,23,0.01,6,Fog-Rain,135
2011-9-25,62,58,54,57,54,52,94,88,81,30.02,29.98,29.85,10,7,2,12,4,20,0.26,7,Rain,120
2011-9-26,68,59,50,61,53,44,93,76,47,29.86,29.73,29.63,10,8,2,22,9,32,0.35,5,Rain,154
2011-9-27,58,54,50,54,51,45,94,88,75,29.81,29.79,29.76,10,7,2,13,5,22,0.61,7,Rain,119
2011-9-28,61,57,53,54,52,50,94,87,72,29.80,29.78,29.75,10,6,3,10,3,13,0.07,8,Rain,136
2011-9-29,65,58,51,56,52,45,100,89,67,29.79,29.70,29.50,10,4,0,23,8,30,0.42,7,Fog-Rain-Thunderstorm,233
2011-9-30,55,49,42,52,44,37,94,78,55,30.08,29.77,29.47,10,9,3,32,17,39,0.08,7,Rain,320